Decoded Metar for GCGM (LA GOMERA in SPAIN) (IATA:N/A) | Meteo·Mobile Aviation Weather
aviador You're here:

GCGM Decoded Metar

LA GOMERA in SPAIN
Report Time2018-12-14 11:30:00
UTC Time2018-12-14 11:55:21
Flight Rules vfr VFR
Wind230° at 08 kt
W.Decomp.*RWY 27: 6.6 kt HW 4.5 kt LCW
W.Rank230° ranks 1
Current wind is above 230° avg. (7.3)
Visibility9999 m
Phenomena:N/A
Clouds:Few 030 Hf
Expected CloudBase > 2,400 ft AGL from Temp-Dew spread
CeilingNone
Temp21°C
Dew Point15°C (69% RH)
AAT19.8°C
QNH1028 hPa
Raw Report
METAR GCGM 141130Z 23008KT 200V270 9999 FEW030 21/15 Q1028 RMK
R09/22006KT 160V290 ARP/24007KT 160V280=

Extra information for GCGM:More info

Metar Taf Metar & Taf Last 4 Metars F.Rules Stats Wind Profile Meteogram Temp Stats Airport Information Weather charts Add Link Nearby VenuesMetar ALERT Operation Metar Decoded Social comments